Time;durP1;ratioP1;P1;durP2;ratioP2;P2;SDS_P1;SDS_P2;PMS_P1;PMS_P2;Temp;Humidity;BMP_temperature;BMP_pressure;BME280_temperature;BME280_humidity;BME280_pressure;Samples;Min_cycle;Max_cycle;Signal;HPM_P1;HPM_P2
2023/07/11 00:01:42;;;;;;;2.92;1.20;;;17.50;99.90;;;;;;5081022;28;20145;-69
2023/07/11 00:04:07;;;;;;;3.10;1.00;;;17.50;99.90;;;;;;5078044;28;20583;-69
2023/07/11 00:06:33;;;;;;;2.85;1.20;;;17.50;99.90;;;;;;5078993;28;20075;-69
2023/07/11 00:08:58;;;;;;;2.28;1.10;;;17.50;99.90;;;;;;5065669;28;20404;-69
2023/07/11 00:11:24;;;;;;;3.78;1.13;;;17.50;99.90;;;;;;5077767;28;20031;-69
2023/07/11 00:13:50;;;;;;;2.80;0.95;;;17.50;99.90;;;;;;5076019;28;20577;-69
2023/07/11 00:16:17;;;;;;;4.32;1.05;;;17.50;99.90;;;;;;5060480;28;20128;-69
2023/07/11 00:18:44;;;;;;;3.55;1.00;;;17.60;99.90;;;;;;5077734;28;20040;-69
2023/07/11 00:21:09;;;;;;;6.43;1.17;;;17.60;99.90;;;;;;5076642;28;20040;-69
2023/07/11 00:23:35;;;;;;;4.75;1.10;;;17.60;99.90;;;;;;5072460;28;20364;-68
2023/07/11 00:26:00;;;;;;;2.00;1.00;;;17.60;99.90;;;;;;5080521;28;20075;-68
2023/07/11 00:28:26;;;;;;;1.88;0.90;;;17.60;99.90;;;;;;5080434;28;20456;-69
2023/07/11 00:30:52;;;;;;;4.00;0.95;;;17.60;99.90;;;;;;5067824;28;20051;-69
2023/07/11 00:33:19;;;;;;;2.78;0.80;;;17.60;99.90;;;;;;5071274;28;20044;-69
2023/07/11 00:35:46;;;;;;;3.17;0.90;;;17.60;99.90;;;;;;5068760;28;20506;-69
2023/07/11 00:38:15;;;;;;;2.42;1.00;;;17.70;99.90;;;;;;5077238;28;20436;-69
2023/07/11 00:40:43;;;;;;;2.47;0.73;;;17.60;99.90;;;;;;5077838;28;20036;-69
2023/07/11 00:43:15;;;;;;;2.63;0.90;;;17.70;99.90;;;;;;5076945;28;20036;-69
2023/07/11 00:46:04;;;;;;;5.57;1.08;;;17.70;99.90;;;;;;5069628;28;20418;-69
2023/07/11 00:48:34;;;;;;;2.47;0.80;;;17.70;99.90;;;;;;5068739;28;20468;-69
2023/07/11 00:51:00;;;;;;;2.13;0.80;;;17.70;99.90;;;;;;5061372;28;20476;-69
2023/07/11 00:53:26;;;;;;;3.88;0.85;;;17.70;99.90;;;;;;5068778;28;20439;-69
2023/07/11 00:55:54;;;;;;;2.00;0.77;;;17.60;99.90;;;;;;5080672;28;20105;-69
2023/07/11 00:58:21;;;;;;;1.92;0.80;;;17.70;99.90;;;;;;5079763;28;20048;-69
2023/07/11 01:00:46;;;;;;;1.75;0.90;;;17.70;99.90;;;;;;5077257;28;20050;-69
2023/07/11 01:03:12;;;;;;;3.40;0.68;;;17.70;99.90;;;;;;5076616;28;20036;-69
2023/07/11 01:05:39;;;;;;;1.58;0.90;;;17.80;99.90;;;;;;5076240;28;20044;-69
2023/07/11 01:08:05;;;;;;;2.78;0.73;;;17.80;99.90;;;;;;5077015;28;20114;-69
2023/07/11 01:10:31;;;;;;;3.58;1.00;;;17.80;99.90;;;;;;5082075;28;20032;-69
2023/07/11 01:13:02;;;;;;;1.33;0.63;;;17.80;99.90;;;;;;5077525;28;20500;-69
2023/07/11 01:15:28;;;;;;;0.75;0.52;;;17.80;99.90;;;;;;5080033;28;20078;-69
2023/07/11 01:17:54;;;;;;;1.60;0.60;;;17.70;99.90;;;;;;5081666;28;20045;-69
2023/07/11 01:20:22;;;;;;;1.75;0.90;;;17.80;99.90;;;;;;5074652;28;20039;-69
2023/07/11 01:22:49;;;;;;;1.60;0.80;;;17.70;99.90;;;;;;5081202;28;20044;-69
2023/07/11 01:25:15;;;;;;;3.00;0.90;;;17.70;99.90;;;;;;5081408;28;20051;-69
2023/07/11 01:27:45;;;;;;;4.10;1.23;;;17.60;99.90;;;;;;5079656;28;20036;-69
2023/07/11 01:30:14;;;;;;;3.33;0.93;;;17.70;99.90;;;;;;5075945;28;20624;-69
2023/07/11 01:32:40;;;;;;;1.77;0.70;;;17.60;99.90;;;;;;5077579;28;20036;-69
2023/07/11 01:35:06;;;;;;;3.80;0.75;;;17.60;99.90;;;;;;5081632;28;20029;-69
2023/07/11 01:37:31;;;;;;;2.38;0.60;;;17.60;99.90;;;;;;5073211;28;20445;-68
2023/07/11 01:39:57;;;;;;;3.85;1.08;;;17.50;99.90;;;;;;5078315;28;20107;-69
2023/07/11 01:42:24;;;;;;;1.92;0.98;;;17.50;99.90;;;;;;5073360;28;20086;-69
2023/07/11 01:44:50;;;;;;;2.92;0.80;;;17.50;99.90;;;;;;5074369;28;20036;-69
2023/07/11 01:47:15;;;;;;;1.95;0.77;;;17.50;99.90;;;;;;5055893;28;20445;-69
2023/07/11 01:49:41;;;;;;;4.35;1.10;;;17.50;99.90;;;;;;5065457;28;20033;-69
2023/07/11 01:52:22;;;;;;;2.55;1.17;;;17.50;99.90;;;;;;5079239;28;20543;-69
2023/07/11 01:54:49;;;;;;;2.65;0.88;;;17.50;99.90;;;;;;5081175;28;20041;-69
2023/07/11 01:57:15;;;;;;;3.47;0.93;;;17.40;99.90;;;;;;5074253;28;20489;-69
2023/07/11 01:59:41;;;;;;;4.35;1.10;;;17.40;99.90;;;;;;5058336;28;20040;-69
2023/07/11 02:02:08;;;;;;;2.85;0.80;;;17.40;99.90;;;;;;5083279;28;20497;-69
2023/07/11 02:04:35;;;;;;;1.65;0.68;;;17.40;99.90;;;;;;5078682;28;20032;-69
2023/07/11 02:07:02;;;;;;;2.47;0.90;;;17.40;99.90;;;;;;5079156;28;20569;-69
2023/07/11 02:09:30;;;;;;;5.25;0.90;;;17.40;99.90;;;;;;5081186;28;20566;-69
2023/07/11 02:11:56;;;;;;;3.67;0.93;;;17.40;99.90;;;;;;5078696;28;20097;-69
2023/07/11 02:14:22;;;;;;;4.43;1.30;;;17.40;99.90;;;;;;5081172;28;20031;-69
2023/07/11 02:16:49;;;;;;;2.55;0.90;;;17.40;99.90;;;;;;5081333;28;20079;-69
2023/07/11 02:19:18;;;;;;;4.07;0.82;;;17.40;99.90;;;;;;5074658;28;20450;-69
2023/07/11 02:21:44;;;;;;;3.67;0.98;;;17.40;99.90;;;;;;5083194;28;20490;-69
2023/07/11 02:24:13;;;;;;;3.83;1.40;;;17.40;99.90;;;;;;5064886;28;20054;-69
2023/07/11 02:26:39;;;;;;;3.08;0.90;;;17.40;99.90;;;;;;5073279;28;20524;-69
2023/07/11 02:29:05;;;;;;;2.72;1.00;;;17.40;99.90;;;;;;5077398;28;20048;-69
2023/07/11 02:31:32;;;;;;;3.60;0.90;;;17.30;99.90;;;;;;5077803;28;20055;-69
2023/07/11 02:33:59;;;;;;;3.55;0.88;;;17.40;99.90;;;;;;5081532;28;20075;-69
2023/07/11 02:36:24;;;;;;;3.50;1.10;;;17.40;99.90;;;;;;5078835;28;20043;-69
2023/07/11 02:38:50;;;;;;;2.90;1.08;;;17.40;99.90;;;;;;5076306;28;20044;-69
2023/07/11 02:41:16;;;;;;;3.15;1.17;;;17.40;99.90;;;;;;5082575;28;20039;-69
2023/07/11 02:43:42;;;;;;;2.80;1.50;;;17.40;99.90;;;;;;5080181;28;20127;-69
2023/07/11 02:46:08;;;;;;;3.50;1.02;;;17.40;99.90;;;;;;5073571;28;20483;-69
2023/07/11 02:48:33;;;;;;;2.13;1.20;;;17.40;99.90;;;;;;5081104;28;20032;-69
2023/07/11 02:50:59;;;;;;;2.08;1.10;;;17.40;99.90;;;;;;5074135;28;20051;-69
2023/07/11 02:53:25;;;;;;;3.95;1.50;;;17.40;99.90;;;;;;5083772;28;20032;-69
2023/07/11 02:55:53;;;;;;;3.80;1.40;;;17.40;99.90;;;;;;5076564;28;20102;-69
2023/07/11 02:58:19;;;;;;;3.38;1.25;;;17.40;99.90;;;;;;5078596;28;20060;-69
2023/07/11 03:00:49;;;;;;;8.23;1.60;;;17.40;99.90;;;;;;5072180;28;20051;-69
2023/07/11 03:03:15;;;;;;;5.00;1.70;;;17.40;99.90;;;;;;5083577;28;20398;-69
2023/07/11 03:05:45;;;;;;;3.83;1.50;;;17.40;99.90;;;;;;5079664;28;20072;-69
2023/07/11 03:08:11;;;;;;;3.00;1.50;;;17.40;99.90;;;;;;5081825;28;20037;-69
2023/07/11 03:10:37;;;;;;;7.18;1.13;;;17.50;99.90;;;;;;5075611;28;20188;-69
2023/07/11 03:13:03;;;;;;;5.35;1.23;;;17.40;99.90;;;;;;5071752;28;20038;-69
2023/07/11 03:15:28;;;;;;;3.30;1.50;;;17.40;99.90;;;;;;5080770;28;20032;-69
2023/07/11 03:17:54;;;;;;;7.15;1.35;;;17.40;99.90;;;;;;5079722;28;20058;-69
2023/07/11 03:20:19;;;;;;;6.07;1.70;;;17.40;99.90;;;;;;5072750;28;20490;-69
2023/07/11 03:22:46;;;;;;;4.20;1.33;;;17.50;99.90;;;;;;5079794;28;20039;-69
2023/07/11 03:25:11;;;;;;;4.32;1.73;;;17.50;99.90;;;;;;5081997;28;20036;-69
2023/07/11 03:27:37;;;;;;;5.03;1.70;;;17.40;99.90;;;;;;5068816;28;20447;-69
2023/07/11 03:30:03;;;;;;;3.65;1.48;;;17.50;99.90;;;;;;5079109;28;20032;-69
2023/07/11 03:32:28;;;;;;;4.20;1.23;;;17.40;99.90;;;;;;5078343;28;20415;-69
2023/07/11 03:34:54;;;;;;;3.95;1.65;;;17.50;99.90;;;;;;5078896;28;20036;-69
2023/07/11 03:37:20;;;;;;;3.97;1.83;;;17.40;99.90;;;;;;5071680;28;20048;-69
2023/07/11 03:39:45;;;;;;;5.85;1.50;;;17.50;99.90;;;;;;5080876;28;20032;-69
2023/07/11 03:42:11;;;;;;;3.35;1.40;;;17.50;99.90;;;;;;5070179;28;21532;-69
2023/07/11 03:44:38;;;;;;;3.83;1.58;;;17.40;99.90;;;;;;5076520;28;20538;-69
2023/07/11 03:47:04;;;;;;;4.07;1.75;;;17.50;99.90;;;;;;5063815;28;20506;-69
2023/07/11 03:49:29;;;;;;;3.97;1.70;;;17.50;99.90;;;;;;5069019;28;20048;-69
2023/07/11 03:51:55;;;;;;;3.85;1.65;;;17.50;99.90;;;;;;5058582;28;20036;-69
2023/07/11 03:54:23;;;;;;;3.17;1.65;;;17.50;99.90;;;;;;5076235;28;20070;-69
2023/07/11 03:56:52;;;;;;;3.83;1.67;;;17.50;99.90;;;;;;5072156;28;20040;-69
2023/07/11 03:59:18;;;;;;;2.95;1.77;;;17.50;99.90;;;;;;5075714;28;20543;-69
2023/07/11 04:01:44;;;;;;;4.32;1.55;;;17.60;99.90;;;;;;5063731;28;20047;-69
2023/07/11 04:04:10;;;;;;;2.58;1.30;;;17.60;99.90;;;;;;5076790;28;20040;-69
2023/07/11 04:06:35;;;;;;;3.42;1.52;;;17.50;99.90;;;;;;5077018;28;20302;-69
2023/07/11 04:09:01;;;;;;;3.25;1.35;;;17.60;99.90;;;;;;5074115;28;20394;-69
2023/07/11 04:11:27;;;;;;;3.40;1.50;;;17.60;99.90;;;;;;5081199;28;20116;-69
2023/07/11 04:13:52;;;;;;;2.83;1.80;;;17.60;99.90;;;;;;5086202;28;20028;-69
2023/07/11 04:16:18;;;;;;;3.15;1.58;;;17.60;99.90;;;;;;5061044;28;20040;-69
2023/07/11 04:18:44;;;;;;;3.40;1.30;;;17.50;99.90;;;;;;5077039;28;20654;-69
2023/07/11 04:21:09;;;;;;;4.95;2.10;;;17.60;99.90;;;;;;5074394;28;20397;-69
2023/07/11 04:23:35;;;;;;;6.53;2.20;;;17.50;99.90;;;;;;5073255;28;20161;-69
2023/07/11 04:26:00;;;;;;;4.60;1.50;;;17.50;99.90;;;;;;5074453;28;20152;-69
2023/07/11 04:28:26;;;;;;;3.92;1.42;;;17.50;99.90;;;;;;5070913;28;20393;-69
2023/07/11 04:30:52;;;;;;;5.85;2.30;;;17.50;99.90;;;;;;5079575;28;20040;-69
2023/07/11 04:33:17;;;;;;;2.63;1.30;;;17.50;99.90;;;;;;5064286;28;20040;-69
2023/07/11 04:35:44;;;;;;;4.80;1.80;;;17.50;99.90;;;;;;5080136;28;20049;-69
2023/07/11 04:38:11;;;;;;;2.90;1.80;;;17.50;99.90;;;;;;5075136;28;20055;-69
2023/07/11 04:40:37;;;;;;;3.85;1.65;;;17.60;99.90;;;;;;5076516;28;20044;-69
2023/07/11 04:43:03;;;;;;;3.42;1.73;;;17.60;99.90;;;;;;5073747;28;20386;-69
2023/07/11 04:45:28;;;;;;;3.35;2.05;;;17.60;99.90;;;;;;5082734;28;20043;-69
2023/07/11 04:47:54;;;;;;;5.55;1.63;;;17.60;99.90;;;;;;5084944;28;20054;-69
2023/07/11 04:50:19;;;;;;;8.50;1.88;;;17.60;99.90;;;;;;5078294;28;20036;-69
2023/07/11 04:52:45;;;;;;;5.05;1.85;;;17.60;99.90;;;;;;5081240;28;20036;-69
2023/07/11 04:55:11;;;;;;;4.20;1.73;;;17.70;99.90;;;;;;5076304;28;20115;-69
2023/07/11 04:57:37;;;;;;;4.38;2.00;;;17.70;99.90;;;;;;5078397;28;20111;-69
2023/07/11 05:00:05;;;;;;;4.70;1.95;;;17.70;99.90;;;;;;5079645;28;20512;-69
2023/07/11 05:02:31;;;;;;;4.45;1.98;;;17.80;99.90;;;;;;5063692;28;20047;-69
2023/07/11 05:04:57;;;;;;;4.25;2.20;;;17.70;99.90;;;;;;5081471;28;20033;-69
2023/07/11 05:07:23;;;;;;;5.28;2.28;;;17.80;99.90;;;;;;5081963;28;20068;-69
2023/07/11 05:09:48;;;;;;;3.10;2.08;;;17.70;99.90;;;;;;5082948;28;20090;-69
2023/07/11 05:12:15;;;;;;;7.20;2.25;;;17.80;99.90;;;;;;5082977;28;20089;-69
2023/07/11 05:14:41;;;;;;;4.72;2.58;;;17.80;99.90;;;;;;5058328;28;20041;-70
2023/07/11 05:17:07;;;;;;;7.00;2.33;;;17.70;99.90;;;;;;5080915;28;20040;-69
2023/07/11 05:19:32;;;;;;;4.82;2.10;;;17.80;99.90;;;;;;5079844;28;20089;-69
2023/07/11 05:21:58;;;;;;;7.18;2.20;;;17.80;99.90;;;;;;5078037;28;20047;-69
2023/07/11 05:24:23;;;;;;;5.60;2.17;;;17.80;99.90;;;;;;5076759;28;20054;-69
2023/07/11 05:26:49;;;;;;;7.35;1.95;;;17.80;99.90;;;;;;5070903;28;20045;-69
2023/07/11 05:29:15;;;;;;;5.93;2.33;;;17.80;99.90;;;;;;5082157;28;20536;-69
2023/07/11 05:31:41;;;;;;;4.07;2.33;;;17.80;99.90;;;;;;5083040;28;20040;-69
2023/07/11 05:34:08;;;;;;;5.40;1.92;;;17.90;99.90;;;;;;5079864;28;20070;-69
2023/07/11 05:36:35;;;;;;;6.63;2.28;;;17.90;99.90;;;;;;5063552;28;20043;-69
2023/07/11 05:39:03;;;;;;;4.50;2.13;;;17.90;99.90;;;;;;5068112;28;20508;-69
2023/07/11 05:41:30;;;;;;;4.88;2.65;;;17.90;99.90;;;;;;5071455;28;20059;-69
2023/07/11 05:43:55;;;;;;;4.65;2.00;;;18.00;99.90;;;;;;5075775;28;20082;-69
2023/07/11 05:46:22;;;;;;;4.60;2.00;;;18.00;99.90;;;;;;5081733;28;20048;-69
2023/07/11 05:48:48;;;;;;;5.95;2.22;;;18.10;99.90;;;;;;5076011;28;20051;-69
2023/07/11 05:51:16;;;;;;;5.90;2.42;;;18.10;99.90;;;;;;5074844;28;20031;-69
2023/07/11 05:53:41;;;;;;;5.05;2.20;;;18.10;99.90;;;;;;5083389;28;20050;-69
2023/07/11 05:56:07;;;;;;;5.25;2.13;;;18.20;99.90;;;;;;5077058;28;20040;-69
2023/07/11 05:58:34;;;;;;;7.68;2.30;;;18.20;99.90;;;;;;5078404;28;20079;-70
2023/07/11 06:01:00;;;;;;;8.73;2.17;;;18.20;99.90;;;;;;5060846;28;20049;-70
2023/07/11 06:03:27;;;;;;;5.15;2.25;;;18.20;99.90;;;;;;5080040;28;20040;-72
2023/07/11 06:05:53;;;;;;;4.00;2.50;;;18.30;99.90;;;;;;5076825;28;20036;-71
2023/07/11 06:08:19;;;;;;;4.15;2.00;;;18.30;99.90;;;;;;5080523;28;20041;-72
2023/07/11 06:10:45;;;;;;;4.82;2.22;;;18.40;99.90;;;;;;5073437;28;20032;-73
2023/07/11 06:13:13;;;;;;;6.40;2.10;;;18.40;99.90;;;;;;5064568;28;20041;-72
2023/07/11 06:15:39;;;;;;;4.28;2.28;;;18.40;99.90;;;;;;5082897;28;20036;-71
2023/07/11 06:18:04;;;;;;;5.15;2.22;;;18.50;99.90;;;;;;5079745;28;20041;-71
2023/07/11 06:20:30;;;;;;;5.93;2.20;;;18.60;99.90;;;;;;5076426;28;20044;-72
2023/07/11 06:22:56;;;;;;;4.60;1.75;;;18.70;99.90;;;;;;5084813;28;20037;-71
2023/07/11 06:25:22;;;;;;;4.93;1.95;;;18.90;99.90;;;;;;5063992;28;20052;-70
2023/07/11 06:27:48;;;;;;;3.13;1.88;;;19.00;99.90;;;;;;5079432;28;20082;-71
2023/07/11 06:30:13;;;;;;;4.80;2.22;;;19.00;99.90;;;;;;5078464;28;20101;-71
2023/07/11 06:32:39;;;;;;;6.68;2.13;;;19.00;99.90;;;;;;5076133;28;20040;-71
2023/07/11 06:35:05;;;;;;;4.15;1.88;;;19.20;99.90;;;;;;5075432;28;20081;-70
2023/07/11 06:37:31;;;;;;;5.70;2.33;;;19.30;99.90;;;;;;5093700;28;20434;-71
2023/07/11 06:39:56;;;;;;;4.18;2.17;;;19.70;99.90;;;;;;5076082;28;20171;-71
2023/07/11 06:42:22;;;;;;;6.15;2.17;;;20.60;99.90;;;;;;5054701;28;20032;-71
2023/07/11 06:44:47;;;;;;;4.82;1.80;;;21.80;99.90;;;;;;5060928;28;20123;-71
2023/07/11 06:47:13;;;;;;;3.83;1.60;;;22.90;99.90;;;;;;5079190;28;20044;-71
2023/07/11 06:49:39;;;;;;;5.20;1.77;;;23.70;99.60;;;;;;5073303;28;20128;-71
2023/07/11 06:52:05;;;;;;;3.67;1.88;;;24.50;98.60;;;;;;5079790;28;20090;-71
2023/07/11 06:54:30;;;;;;;2.45;1.48;;;24.90;97.70;;;;;;5078216;28;20059;-71
2023/07/11 06:56:59;;;;;;;2.85;1.42;;;25.30;96.90;;;;;;5075549;28;20469;-71
2023/07/11 06:59:24;;;;;;;2.63;1.27;;;25.30;96.10;;;;;;5070626;28;20036;-71
2023/07/11 07:01:50;;;;;;;4.70;1.70;;;24.90;96.60;;;;;;5072235;28;20093;-71
2023/07/11 07:04:16;;;;;;;3.08;1.52;;;24.30;97.20;;;;;;5078964;28;20040;-71
2023/07/11 07:06:43;;;;;;;3.95;1.67;;;23.80;97.90;;;;;;5070545;28;20086;-71
2023/07/11 07:09:10;;;;;;;6.05;1.77;;;23.40;98.50;;;;;;5078669;28;20045;-71
2023/07/11 07:11:36;;;;;;;3.50;1.50;;;23.10;98.90;;;;;;5073001;28;20035;-71
2023/07/11 07:14:06;;;;;;;5.10;1.63;;;22.80;99.30;;;;;;5078235;28;20123;-71
2023/07/11 07:16:34;;;;;;;5.50;1.58;;;22.60;99.60;;;;;;5078068;28;20432;-72
2023/07/11 07:19:00;;;;;;;7.47;1.90;;;22.50;99.90;;;;;;5068191;28;20072;-71
2023/07/11 07:21:26;;;;;;;5.70;1.80;;;22.30;99.90;;;;;;5073324;28;20039;-71
2023/07/11 07:23:52;;;;;;;5.63;1.70;;;22.20;99.90;;;;;;5072188;28;20432;-71
2023/07/11 07:26:18;;;;;;;4.53;1.70;;;22.00;99.90;;;;;;5066770;28;20049;-71
2023/07/11 07:28:43;;;;;;;2.80;1.38;;;21.80;99.90;;;;;;5074860;28;20111;-71
2023/07/11 07:31:09;;;;;;;2.97;1.63;;;21.70;99.90;;;;;;5077822;28;20044;-71
2023/07/11 07:33:35;;;;;;;7.40;1.90;;;21.70;99.90;;;;;;5062241;28;20036;-71
2023/07/11 07:36:04;;;;;;;3.35;1.83;;;21.70;99.90;;;;;;5076606;28;20051;-71
2023/07/11 07:38:31;;;;;;;4.00;1.70;;;21.70;99.90;;;;;;5078130;28;20386;-71
2023/07/11 07:41:01;;;;;;;3.17;1.60;;;21.80;99.90;;;;;;5077770;28;20093;-70
2023/07/11 07:43:28;;;;;;;3.30;1.77;;;21.80;99.90;;;;;;5065866;28;20032;-71
2023/07/11 07:45:57;;;;;;;4.28;1.50;;;21.70;99.90;;;;;;5078153;28;20580;-71
2023/07/11 07:48:23;;;;;;;4.05;1.70;;;21.70;99.90;;;;;;5079054;28;20035;-71
2023/07/11 07:50:49;;;;;;;2.10;1.35;;;21.80;99.90;;;;;;5048753;28;20474;-71
2023/07/11 07:53:15;;;;;;;3.88;1.63;;;21.80;99.90;;;;;;5075099;28;20102;-70
2023/07/11 07:55:42;;;;;;;5.18;1.38;;;21.80;99.90;;;;;;5068179;28;20645;-71
2023/07/11 07:58:08;;;;;;;5.07;1.85;;;21.70;99.90;;;;;;5074437;28;20085;-72
2023/07/11 08:00:33;;;;;;;3.15;1.52;;;21.80;99.90;;;;;;5080184;28;20428;-71
2023/07/11 08:02:59;;;;;;;3.15;1.40;;;21.80;99.90;;;;;;5072389;28;20040;-71
2023/07/11 08:05:25;;;;;;;5.10;1.42;;;21.80;99.90;;;;;;5070024;28;20037;-71
2023/07/11 08:07:51;;;;;;;5.30;1.58;;;21.80;99.90;;;;;;5074785;28;20054;-71
2023/07/11 08:10:17;;;;;;;2.10;1.25;;;21.80;99.90;;;;;;5073924;28;20060;-71
2023/07/11 08:12:43;;;;;;;4.55;1.60;;;21.90;99.90;;;;;;5078390;28;20032;-71
2023/07/11 08:15:10;;;;;;;3.92;1.52;;;21.90;99.90;;;;;;5069618;28;20051;-71
2023/07/11 08:17:36;;;;;;;4.70;1.58;;;21.90;99.90;;;;;;5066933;28;20040;-71
2023/07/11 08:20:02;;;;;;;2.67;1.48;;;22.10;99.90;;;;;;5081694;28;20521;-71
2023/07/11 08:22:27;;;;;;;2.90;1.42;;;22.10;99.90;;;;;;5077184;28;20127;-71
2023/07/11 08:24:53;;;;;;;5.65;1.50;;;22.20;99.90;;;;;;5076448;28;20579;-71
2023/07/11 08:27:18;;;;;;;7.32;3.78;;;22.20;99.90;;;;;;5079559;28;20048;-71
2023/07/11 08:29:45;;;;;;;6.50;3.22;;;22.20;99.90;;;;;;5077986;28;20043;-71
2023/07/11 08:32:13;;;;;;;6.20;2.83;;;22.20;99.90;;;;;;5068576;28;20032;-71
2023/07/11 08:34:39;;;;;;;7.47;2.42;;;22.30;99.90;;;;;;5073453;28;20494;-71
2023/07/11 08:37:05;;;;;;;3.97;2.10;;;22.40;99.90;;;;;;5073069;28;20062;-71
2023/07/11 08:39:30;;;;;;;4.30;2.00;;;22.50;99.90;;;;;;5065252;28;20052;-71
2023/07/11 08:41:58;;;;;;;4.15;1.50;;;22.40;99.90;;;;;;5078350;28;20138;-72
2023/07/11 08:44:26;;;;;;;3.72;1.52;;;22.50;99.90;;;;;;5077201;28;20051;-72
2023/07/11 08:46:58;;;;;;;5.60;1.50;;;22.50;99.90;;;;;;5074239;28;20046;-71
2023/07/11 08:49:48;;;;;;;3.80;1.60;;;22.50;99.90;;;;;;5066015;28;20043;-72
2023/07/11 08:52:17;;;;;;;3.65;1.33;;;22.50;99.80;;;;;;5078568;28;20055;-72
2023/07/11 08:54:51;;;;;;;3.85;1.45;;;22.60;99.90;;;;;;5071964;28;20265;-72
2023/07/11 08:57:20;;;;;;;2.67;1.30;;;22.60;99.90;;;;;;5081530;28;20044;-71
2023/07/11 08:59:45;;;;;;;5.32;1.38;;;22.50;99.90;;;;;;5079080;28;20079;-71
2023/07/11 09:02:26;;;;;;;3.55;1.13;;;22.60;99.90;;;;;;5077272;28;20153;-70
2023/07/11 09:04:53;;;;;;;4.30;1.50;;;22.70;99.70;;;;;;5066647;28;20068;-70
2023/07/11 09:07:31;;;;;;;2.15;1.17;;;22.80;99.70;;;;;;5081133;28;20033;-71
2023/07/11 09:09:57;;;;;;;3.03;1.15;;;22.90;99.50;;;;;;5060547;28;20116;-71
2023/07/11 09:12:52;;;;;;;3.38;1.33;;;22.90;99.20;;;;;;5086470;28;20119;-71
2023/07/11 09:15:28;;;;;;;2.75;1.33;;;22.90;99.00;;;;;;5077624;28;20028;-71
2023/07/11 09:18:19;;;;;;;2.97;1.38;;;22.90;99.30;;;;;;5083381;28;20123;-71
2023/07/11 09:20:51;;;;;;;2.72;1.30;;;22.90;98.80;;;;;;5074953;28;20144;-71
2023/07/11 09:23:32;;;;;;;3.10;1.15;;;23.00;99.10;;;;;;5074918;28;20170;-70
2023/07/11 09:26:02;;;;;;;2.50;0.98;;;23.00;98.60;;;;;;5077305;28;20687;-71
2023/07/11 09:28:32;;;;;;;3.20;0.80;;;23.10;98.60;;;;;;5082515;28;20478;-71
2023/07/11 09:31:01;;;;;;;1.75;0.85;;;23.10;98.50;;;;;;5071460;28;20078;-71
2023/07/11 09:33:33;;;;;;;1.88;0.65;;;23.20;98.00;;;;;;5083248;28;20092;-71
2023/07/11 09:36:01;;;;;;;2.00;0.95;;;23.30;97.50;;;;;;5076524;28;20040;-71
2023/07/11 09:38:42;;;;;;;5.22;0.98;;;23.40;97.10;;;;;;5080328;28;20040;-71
2023/07/11 09:41:17;;;;;;;2.08;0.88;;;23.40;96.40;;;;;;5076860;28;20032;-71
2023/07/11 09:43:43;;;;;;;4.45;1.02;;;23.50;96.50;;;;;;5072151;28;20151;-71
2023/07/11 09:46:14;;;;;;;2.00;1.00;;;23.50;96.30;;;;;;5076842;28;20032;-71
2023/07/11 09:48:42;;;;;;;1.63;0.80;;;23.60;96.10;;;;;;5076288;28;20505;-71
2023/07/11 09:51:24;;;;;;;3.28;1.00;;;23.60;96.00;;;;;;5076724;28;20119;-71
2023/07/11 09:53:53;;;;;;;3.10;1.10;;;23.60;96.00;;;;;;5067766;28;20049;-71
2023/07/11 09:56:18;;;;;;;1.88;1.02;;;23.60;96.20;;;;;;5080965;28;20211;-70
2023/07/11 09:58:54;;;;;;;3.00;1.00;;;23.60;96.00;;;;;;5074457;28;20643;-71
2023/07/11 10:01:22;;;;;;;;;;;23.70;95.50;;;;;;5070718;28;20035;-71
2023/07/11 10:03:47;;;;;;;3.38;1.00;;;23.80;95.10;;;;;;5072232;28;19916;-71
2023/07/11 10:06:38;;;;;;;2.25;0.88;;;23.90;96.10;;;;;;5069755;28;20040;-71
2023/07/11 10:09:12;;;;;;;4.88;0.90;;;24.00;95.30;;;;;;5078937;28;20036;-71
2023/07/11 10:11:37;;;;;;;2.78;0.90;;;24.10;95.50;;;;;;5076849;28;20076;-70
2023/07/11 10:14:03;;;;;;;4.13;1.20;;;24.20;95.40;;;;;;5082194;28;20480;-71
2023/07/11 10:16:33;;;;;;;2.55;1.00;;;24.20;95.20;;;;;;5064057;28;20121;-71
2023/07/11 10:18:59;;;;;;;2.08;0.75;;;24.30;94.70;;;;;;5077690;28;20033;-71
2023/07/11 10:21:27;;;;;;;4.80;1.08;;;24.30;94.40;;;;;;5072845;28;20054;-70
2023/07/11 10:23:54;;;;;;;2.17;0.80;;;24.40;94.00;;;;;;5078930;28;20036;-70
2023/07/11 10:26:26;;;;;;;1.80;0.77;;;24.50;93.70;;;;;;5082050;28;20390;-71
2023/07/11 10:28:58;;;;;;;2.63;0.90;;;24.50;93.40;;;;;;5080122;28;20036;-70
2023/07/11 10:31:34;;;;;;;2.50;0.90;;;24.60;93.00;;;;;;5079025;28;20481;-70
2023/07/11 10:34:06;;;;;;;2.65;1.17;;;24.70;92.60;;;;;;5062069;28;20035;-70
2023/07/11 10:36:34;;;;;;;4.60;1.10;;;24.70;92.70;;;;;;5074050;28;20050;-70
2023/07/11 10:39:11;;;;;;;3.22;1.20;;;24.70;92.80;;;;;;5078098;28;20481;-70
2023/07/11 10:41:49;;;;;;;2.38;0.98;;;24.70;92.70;;;;;;5078116;28;20040;-70
2023/07/11 10:44:22;;;;;;;2.92;1.40;;;24.70;92.90;;;;;;5075497;28;20055;-70
2023/07/11 10:46:51;;;;;;;3.22;1.02;;;24.70;93.20;;;;;;5081759;28;20066;-71
2023/07/11 10:49:41;;;;;;;3.53;1.10;;;24.70;93.30;;;;;;5067925;28;20040;-70
2023/07/11 10:52:22;;;;;;;1.75;0.93;;;24.70;92.60;;;;;;5070293;28;20065;-70
2023/07/11 10:55:00;;;;;;;2.60;1.08;;;24.70;93.10;;;;;;5069238;28;20039;-70
2023/07/11 10:57:44;;;;;;;3.33;1.00;;;24.80;93.10;;;;;;5055057;28;20047;-71
2023/07/11 11:00:26;;;;;;;2.83;1.00;;;24.90;93.20;;;;;;5071657;28;20132;-70
2023/07/11 11:03:06;;;;;;;3.75;1.27;;;24.90;93.00;;;;;;5070605;28;20326;-70
2023/07/11 11:05:59;;;;;;;2.95;1.20;;;24.90;93.00;;;;;;5050027;28;20040;-70
2023/07/11 11:08:31;;;;;;;3.88;1.00;;;25.00;92.90;;;;;;5080451;28;20441;-70
2023/07/11 11:11:23;;;;;;;2.53;1.08;;;25.00;93.20;;;;;;5080264;28;20551;-70
2023/07/11 11:14:00;;;;;;;2.67;1.42;;;25.00;93.20;;;;;;5079866;28;20052;-70
2023/07/11 11:16:37;;;;;;;2.47;1.38;;;25.00;93.20;;;;;;5073123;28;20093;-70
2023/07/11 11:19:16;;;;;;;2.13;1.00;;;25.10;93.10;;;;;;5081804;28;20046;-70
2023/07/11 11:21:57;;;;;;;3.20;1.10;;;25.20;92.80;;;;;;5056920;28;20078;-70
2023/07/11 11:24:33;;;;;;;2.25;1.20;;;25.20;92.70;;;;;;5062501;28;20039;-70
2023/07/11 11:27:20;;;;;;;4.07;1.10;;;25.20;93.00;;;;;;5080555;28;20047;-70
2023/07/11 11:29:58;;;;;;;6.03;1.10;;;25.30;92.90;;;;;;5079897;28;20085;-70
2023/07/11 11:33:02;;;;;;;2.78;0.90;;;25.30;92.70;;;;;;5064522;28;20486;-71
2023/07/11 11:35:47;;;;;;;4.70;1.05;;;25.30;91.80;;;;;;5069169;28;20029;-70
2023/07/11 11:38:54;;;;;;;3.47;1.00;;;25.30;92.30;;;;;;5075721;28;20032;-71
2023/07/11 11:41:30;;;;;;;1.90;0.90;;;25.20;92.30;;;;;;5082297;28;20154;-71
2023/07/11 11:43:56;;;;;;;2.95;1.02;;;25.30;92.60;;;;;;5080071;28;20063;-71
2023/07/11 11:46:22;;;;;;;4.18;0.80;;;25.30;92.50;;;;;;5072609;28;20522;-71
2023/07/11 11:48:52;;;;;;;2.70;1.30;;;25.30;92.40;;;;;;5080723;28;20073;-71
2023/07/11 11:51:18;;;;;;;2.80;1.00;;;25.30;92.10;;;;;;5076227;28;20040;-71
2023/07/11 11:53:46;;;;;;;11.00;1.15;;;25.30;92.00;;;;;;5075217;28;20038;-73
2023/07/11 11:56:17;;;;;;;2.92;1.25;;;25.20;92.00;;;;;;5076875;28;20111;-70
2023/07/11 11:59:12;;;;;;;2.75;1.30;;;25.10;91.90;;;;;;5071911;28;20067;-69
2023/07/11 12:02:12;;;;;;;3.28;0.95;;;25.20;90.20;;;;;;5064559;28;20056;-71
2023/07/11 12:05:03;;;;;;;1.92;1.10;;;25.20;91.80;;;;;;5062397;28;20215;-71
2023/07/11 12:07:33;;;;;;;4.65;1.25;;;25.20;91.60;;;;;;5080662;28;20454;-71
2023/07/11 12:10:00;;;;;;;4.20;1.00;;;25.30;92.50;;;;;;5070007;28;20040;-71
2023/07/11 12:12:53;;;;;;;2.50;0.90;;;25.30;92.10;;;;;;5059847;28;20044;-70
2023/07/11 12:15:28;;;;;;;7.10;1.20;;;25.40;91.50;;;;;;5040729;28;20435;-70
2023/07/11 12:17:54;;;;;;;3.20;1.15;;;25.50;91.80;;;;;;5075424;28;20106;-70
2023/07/11 12:20:29;;;;;;;4.75;1.02;;;25.50;91.80;;;;;;5067930;28;20103;-70
2023/07/11 12:22:54;;;;;;;1.95;1.10;;;25.60;91.50;;;;;;5069968;28;20070;-71
2023/07/11 12:25:30;;;;;;;3.50;1.20;;;25.60;91.70;;;;;;5079272;28;20048;-71
2023/07/11 12:28:00;;;;;;;4.30;0.95;;;25.60;90.90;;;;;;5070019;28;20161;-71
2023/07/11 12:30:43;;;;;;;2.70;1.00;;;25.70;91.20;;;;;;5073273;28;20145;-71
2023/07/11 12:33:21;;;;;;;4.43;1.40;;;25.70;90.90;;;;;;5075246;28;20052;-71
2023/07/11 12:35:58;;;;;;;2.17;1.15;;;25.70;91.00;;;;;;5073934;28;20146;-71
2023/07/11 12:38:53;;;;;;;2.35;1.00;;;25.70;90.90;;;;;;5074983;28;20087;-71
2023/07/11 12:41:29;;;;;;;2.57;1.43;;;25.70;90.50;;;;;;5040157;28;20048;-71
2023/07/11 12:43:55;;;;;;;3.20;1.33;;;25.60;90.60;;;;;;5079538;28;20039;-71
2023/07/11 12:46:31;;;;;;;6.82;1.10;;;25.70;90.90;;;;;;5078129;28;20037;-71
2023/07/11 12:48:58;;;;;;;4.85;1.38;;;25.60;90.80;;;;;;5038399;28;20043;-71
2023/07/11 12:51:30;;;;;;;3.30;1.20;;;25.70;90.90;;;;;;5071166;28;20115;-71
2023/07/11 12:54:13;;;;;;;2.67;1.05;;;25.70;90.50;;;;;;5073978;28;20034;-71
2023/07/11 12:56:47;;;;;;;2.40;1.23;;;25.70;90.00;;;;;;5074501;28;20043;-71
2023/07/11 12:59:27;;;;;;;2.55;1.00;;;25.60;90.10;;;;;;5079991;28;20156;-71